Time;durP1;ratioP1;P1;durP2;ratioP2;P2;SDS_P1;SDS_P2;PMS_P1;PMS_P2;Temp;Humidity;BMP_temperature;BMP_pressure;BME280_temperature;BME280_humidity;BME280_pressure;Samples;Min_cycle;Max_cycle;Signal;HPM_P1;HPM_P2
2022/01/23 00:01:49;;;;;;;18.60;14.00;;;;;;;18.46;24.57;99360.47;5150399;27;19895;-64
2022/01/23 00:04:15;;;;;;;14.45;12.02;;;;;;;18.43;24.64;99353.66;5150359;27;20019;-67
2022/01/23 00:06:40;;;;;;;18.90;14.82;;;;;;;18.46;24.27;99355.13;5157757;27;20230;-64
2022/01/23 00:09:06;;;;;;;17.90;13.57;;;;;;;18.45;24.29;99369.56;5170992;27;20095;-64
2022/01/23 00:11:35;;;;;;;16.27;12.95;;;;;;;18.45;24.50;99361.53;5170594;27;20099;-64
2022/01/23 00:19:14;;;;;;;21.67;16.27;;;;;;;18.51;24.12;99370.69;5170700;27;20146;-65
2022/01/23 00:21:41;;;;;;;21.63;17.30;;;;;;;18.50;23.95;99375.19;5168414;27;20033;-65
2022/01/23 00:32:04;;;;;;;20.85;16.25;;;;;;;18.51;23.82;99402.84;5167713;27;20127;-65
2022/01/23 00:34:29;;;;;;;21.30;16.58;;;;;;;18.51;23.88;99405.53;5165322;27;20078;-67
2022/01/23 00:36:55;;;;;;;21.83;16.35;;;;;;;18.50;23.95;99414.56;5167439;27;20014;-64
2022/01/23 00:39:20;;;;;;;19.02;15.02;;;;;;;18.50;23.82;99414.56;5153472;27;20051;-65
2022/01/23 00:41:46;;;;;;;20.20;15.77;;;;;;;18.49;23.86;99412.91;5149325;27;20030;-65
2022/01/23 00:44:11;;;;;;;20.42;15.52;;;;;;;18.47;23.91;99421.09;5159436;27;20073;-64
2022/01/23 00:46:39;;;;;;;21.88;15.30;;;;;;;18.45;23.75;99423.97;5152191;27;20154;-66
2022/01/23 00:51:37;;;;;;;18.83;14.57;;;;;;;18.44;23.72;99416.09;5168821;27;20014;-64
2022/01/23 00:54:05;;;;;;;18.50;13.82;;;;;;;18.42;23.75;99426.16;5168720;27;20019;-64
2022/01/23 00:56:32;;;;;;;19.05;13.88;;;;;;;18.44;23.92;99421.47;5168415;27;20139;-66
2022/01/23 00:58:59;;;;;;;21.15;16.40;;;;;;;18.44;23.63;99422.28;5165631;27;20042;-66
2022/01/23 01:01:25;;;;;;;20.75;15.27;;;;;;;18.44;23.90;99424.97;5149096;27;20018;-63
2022/01/23 01:03:50;;;;;;;20.50;16.33;;;;;;;18.46;23.58;99427.47;5148681;27;20007;-63
2022/01/23 01:06:17;;;;;;;20.27;16.35;;;;;;;18.44;23.66;99424.16;5148803;27;20030;-63
2022/01/23 01:08:43;;;;;;;19.75;15.13;;;;;;;18.47;23.81;99428.31;5149439;27;20209;-63
2022/01/23 01:38:18;;;;;;;14.73;11.40;;;;;;;18.47;25.38;99458.59;5164779;27;20015;-65
2022/01/23 01:40:43;;;;;;;15.93;13.23;;;;;;;18.43;25.08;99459.97;5151297;27;20038;-63
2022/01/23 01:43:09;;;;;;;16.55;12.48;;;;;;;18.44;25.20;99467.00;5154904;27;20019;-66
2022/01/23 01:45:36;;;;;;;14.98;11.68;;;;;;;18.41;25.47;99465.50;5148571;28;20220;-63
2022/01/23 01:48:03;;;;;;;13.77;11.52;;;;;;;18.41;25.36;99472.72;5148571;28;20072;-63
2022/01/23 01:50:31;;;;;;;18.67;14.30;;;;;;;18.38;25.03;99481.09;5161807;27;20129;-65
2022/01/23 01:52:57;;;;;;;17.48;13.50;;;;;;;18.34;25.19;99480.59;5171296;27;20027;-63
2022/01/23 01:55:27;;;;;;;15.27;12.73;;;;;;;18.37;25.10;99484.75;5167519;27;20059;-63
2022/01/23 01:58:00;;;;;;;16.03;12.40;;;;;;;18.35;25.18;99492.13;5170277;27;20086;-64
2022/01/23 02:10:54;;;;;;;15.07;12.10;;;;;;;18.36;25.13;99523.28;5171544;27;20042;-63
2022/01/23 02:13:26;;;;;;;15.05;11.68;;;;;;;18.35;25.39;99529.63;5169552;27;20015;-61
2022/01/23 02:51:38;;;;;;;10.85;9.07;;;;;;;18.22;25.93;99600.63;5166095;27;20025;-62
2022/01/23 02:56:48;;;;;;;9.95;8.25;;;;;;;18.20;26.09;99607.19;5152793;27;20099;-62
2022/01/23 02:59:30;;;;;;;11.10;8.60;;;;;;;18.15;25.91;99607.69;5157261;27;20022;-63
2022/01/23 03:02:25;;;;;;;10.95;8.77;;;;;;;18.15;26.12;99613.06;5151330;27;20011;-63
2022/01/23 03:04:53;;;;;;;10.52;8.55;;;;;;;18.13;26.38;99617.72;5151777;27;20128;-63
2022/01/23 03:10:03;;;;;;;10.80;8.68;;;;;;;18.12;26.30;99624.09;5151531;27;20122;-63
2022/01/23 03:15:31;;;;;;;10.27;8.55;;;;;;;18.11;26.34;99631.28;5113611;27;20062;-63
2022/01/23 03:28:39;;;;;;;10.88;8.27;;;;;;;18.09;26.54;99651.19;5168143;27;20007;-61
2022/01/23 03:31:20;;;;;;;13.85;9.77;;;;;;;18.08;26.21;99661.09;5159063;27;20089;-64
2022/01/23 03:33:47;;;;;;;11.82;9.75;;;;;;;18.08;26.24;99665.59;5160681;27;20090;-63
2022/01/23 03:36:13;;;;;;;11.50;9.00;;;;;;;18.08;26.32;99673.63;5168145;27;20026;-64
2022/01/23 03:38:38;;;;;;;10.52;8.45;;;;;;;18.05;26.59;99677.47;5163061;27;20044;-61
2022/01/23 03:41:04;;;;;;;10.85;9.32;;;;;;;18.04;26.50;99680.31;5163385;27;20014;-61
2022/01/23 03:43:33;;;;;;;12.98;10.73;;;;;;;18.04;26.25;99688.34;5169694;27;20235;-62
2022/01/23 03:51:10;;;;;;;11.18;9.13;;;;;;;18.01;26.70;99694.88;5165583;27;20227;-63
2022/01/23 03:53:35;;;;;;;12.73;10.55;;;;;;;18.03;26.70;99705.41;5158430;27;20019;-63
2022/01/23 03:56:02;;;;;;;11.88;9.52;;;;;;;18.01;26.66;99705.56;5159040;27;20029;-64
2022/01/23 03:58:27;;;;;;;12.48;10.88;;;;;;;18.02;26.81;99717.97;5161170;27;20034;-64
2022/01/23 04:00:53;;;;;;;13.88;10.75;;;;;;;18.03;26.66;99725.00;5166770;27;20007;-64
2022/01/23 04:03:19;;;;;;;13.00;10.70;;;;;;;18.06;26.49;99723.81;5160473;27;20014;-64
2022/01/23 04:05:46;;;;;;;12.63;9.80;;;;;;;18.04;26.75;99728.50;5169253;27;20015;-64
2022/01/23 04:08:12;;;;;;;12.45;10.40;;;;;;;18.06;26.58;99735.38;5159763;27;20094;-64
2022/01/23 04:10:38;;;;;;;13.25;10.07;;;;;;;18.04;26.60;99734.69;5149851;27;20039;-63
2022/01/23 04:14:08;;;;;;;13.02;10.65;;;;;;;18.07;26.34;99738.88;5156471;27;20393;-63
2022/01/23 04:19:11;;;;;;;14.05;11.00;;;;;;;18.03;26.55;99756.28;5158838;27;20023;-63
2022/01/23 04:45:39;;;;;;;15.65;10.88;;;;;;;17.90;26.73;99781.63;5149428;27;20026;-63
2022/01/23 05:06:45;;;;;;;13.77;11.73;;;;;;;17.85;26.48;99816.09;5168551;27;20239;-63
2022/01/23 05:09:12;;;;;;;13.90;10.70;;;;;;;17.86;26.46;99809.75;5148838;27;20036;-63
2022/01/23 05:11:43;;;;;;;14.88;11.18;;;;;;;17.85;26.48;99818.78;5148944;27;20054;-64
2022/01/23 05:14:10;;;;;;;12.00;10.57;;;;;;;17.84;26.35;99823.28;5162190;27;20022;-63
2022/01/23 05:16:36;;;;;;;12.68;10.20;;;;;;;17.84;26.40;99831.31;5149332;27;20023;-63
2022/01/23 05:19:03;;;;;;;11.02;9.10;;;;;;;17.85;26.60;99842.88;5148748;27;20198;-64
2022/01/23 05:24:06;;;;;;;10.60;9.00;;;;;;;17.85;26.63;99856.25;5148843;27;20076;-64
2022/01/23 05:26:39;;;;;;;10.50;8.13;;;;;;;17.87;26.82;99864.94;5153810;27;20014;-64
2022/01/23 05:29:05;;;;;;;10.95;8.50;;;;;;;17.83;26.61;99863.59;5169539;27;20212;-64
2022/01/23 05:31:30;;;;;;;11.00;9.45;;;;;;;17.82;26.27;99869.97;5161780;27;20098;-63
2022/01/23 05:33:56;;;;;;;10.10;7.90;;;;;;;17.82;26.62;99868.09;5148681;27;20075;-64
2022/01/23 05:36:22;;;;;;;8.32;7.47;;;;;;;17.81;26.65;99870.94;5168573;27;20136;-64
2022/01/23 05:38:48;;;;;;;10.52;8.20;;;;;;;17.79;26.58;99875.63;5169498;27;20022;-63
2022/01/23 05:41:13;;;;;;;9.88;8.68;;;;;;;17.78;26.42;99872.13;5169519;27;20011;-64
2022/01/23 05:43:39;;;;;;;11.05;9.05;;;;;;;17.76;26.00;99878.59;5169232;27;20079;-63
2022/01/23 05:46:04;;;;;;;11.98;8.45;;;;;;;17.76;26.37;99879.47;5169414;27;20030;-63
2022/01/23 05:48:30;;;;;;;10.63;8.75;;;;;;;17.74;26.45;99896.66;5169271;27;20020;-64
2022/01/23 05:50:55;;;;;;;9.48;7.63;;;;;;;17.74;26.53;99900.19;5169455;27;20027;-63
2022/01/23 05:53:21;;;;;;;11.45;8.75;;;;;;;17.72;26.51;99898.69;5169288;27;20021;-63
2022/01/23 05:55:46;;;;;;;10.55;8.23;;;;;;;17.72;26.20;99910.22;5169352;27;20014;-63
2022/01/23 05:58:12;;;;;;;9.38;7.63;;;;;;;17.72;26.60;99915.56;5169110;27;20068;-63
2022/01/23 06:00:37;;;;;;;9.95;7.68;;;;;;;17.73;26.45;99927.09;5169218;27;20230;-63
2022/01/23 06:03:03;;;;;;;9.88;7.70;;;;;;;17.69;26.71;99916.72;5167192;27;20018;-64
2022/01/23 06:05:29;;;;;;;9.15;7.25;;;;;;;17.69;26.68;99927.44;5169266;27;20024;-64
2022/01/23 06:07:55;;;;;;;10.70;9.02;;;;;;;17.72;26.47;99926.28;5169168;27;20010;-63
2022/01/23 06:10:26;;;;;;;11.70;8.65;;;;;;;17.71;26.39;99935.28;5169000;27;20018;-63
2022/01/23 06:12:52;;;;;;;10.30;8.20;;;;;;;17.72;26.43;99936.97;5168173;27;20070;-63
2022/01/23 06:15:19;;;;;;;9.40;8.40;;;;;;;17.72;26.19;99953.03;5166638;27;20023;-63
2022/01/23 06:17:45;;;;;;;10.45;8.32;;;;;;;17.73;26.39;99957.38;5169009;27;20086;-63
2022/01/23 06:20:12;;;;;;;13.05;10.20;;;;;;;17.74;25.98;99961.75;5166672;27;20252;-64
2022/01/23 06:22:38;;;;;;;10.75;9.05;;;;;;;17.76;26.13;99964.25;5148223;27;20034;-63
2022/01/23 06:25:08;;;;;;;11.48;8.52;;;;;;;17.78;26.30;99964.94;5166145;27;20023;-64
2022/01/23 06:27:34;;;;;;;15.85;11.32;;;;;;;17.77;26.15;99969.47;5168846;27;20050;-64
2022/01/23 06:29:59;;;;;;;12.52;9.50;;;;;;;17.78;26.11;99981.00;5168846;27;20042;-63
2022/01/23 06:32:25;;;;;;;12.55;9.70;;;;;;;17.75;26.42;99973.28;5156984;27;20035;-64
2022/01/23 06:34:51;;;;;;;11.77;10.30;;;;;;;17.74;26.51;99984.97;5154894;27;20135;-63
2022/01/23 06:37:17;;;;;;;14.82;11.80;;;;;;;17.76;26.29;99983.00;5150295;27;20034;-63
2022/01/23 06:39:43;;;;;;;12.15;10.15;;;;;;;17.76;25.97;99985.66;5168685;27;20026;-63
2022/01/23 06:42:09;;;;;;;12.07;9.68;;;;;;;17.75;26.18;99990.19;5166739;27;20128;-63
2022/01/23 06:44:37;;;;;;;13.27;9.63;;;;;;;17.73;26.27;99992.19;5172315;27;20085;-64
2022/01/23 06:47:04;;;;;;;11.98;9.98;;;;;;;17.73;26.40;99980.63;5161451;27;20046;-63
2022/01/23 06:49:30;;;;;;;10.70;9.10;;;;;;;17.74;26.39;99988.50;5166448;27;20184;-64
2022/01/23 06:51:55;;;;;;;10.88;9.38;;;;;;;17.74;26.62;99998.34;5172223;27;20079;-64
2022/01/23 06:54:21;;;;;;;12.18;10.43;;;;;;;17.74;26.49;100009.06;5171868;27;20030;-62
2022/01/23 06:56:46;;;;;;;11.45;9.27;;;;;;;17.74;26.74;100019.78;5168300;27;20140;-62
2022/01/23 06:59:12;;;;;;;14.63;11.50;;;;;;;17.73;26.64;100018.09;5177775;27;20240;-63
2022/01/23 07:01:37;;;;;;;12.40;10.50;;;;;;;17.75;26.62;100026.81;5193297;27;20022;-63
2022/01/23 07:04:03;;;;;;;11.35;9.95;;;;;;;17.78;26.56;100035.38;5193301;27;20033;-63
2022/01/23 07:06:29;;;;;;;12.13;10.07;;;;;;;17.79;26.63;100030.84;5193312;27;20024;-63
2022/01/23 07:08:54;;;;;;;12.73;9.05;;;;;;;17.77;26.57;100035.53;5193025;27;20048;-63
2022/01/23 07:11:20;;;;;;;13.48;9.45;;;;;;;17.77;26.59;100047.09;5174554;27;20061;-63
2022/01/23 07:13:45;;;;;;;13.55;10.25;;;;;;;17.76;26.37;100053.44;5154040;27;20239;-65
2022/01/23 07:16:11;;;;;;;11.15;10.02;;;;;;;17.76;26.55;100048.06;5172116;27;20254;-63
2022/01/23 07:18:37;;;;;;;13.02;10.45;;;;;;;17.79;26.77;100044.25;5172049;27;20019;-62
2022/01/23 07:21:02;;;;;;;13.70;11.23;;;;;;;17.78;26.48;100048.78;5171887;27;20014;-63
2022/01/23 07:23:28;;;;;;;11.85;10.07;;;;;;;17.79;26.54;100058.44;5171886;27;20006;-62
2022/01/23 07:25:53;;;;;;;12.20;10.20;;;;;;;17.77;26.92;100047.09;5171866;27;20042;-62
2022/01/23 07:28:22;;;;;;;14.63;10.30;;;;;;;17.78;26.35;100059.47;5169240;27;20022;-65
2022/01/23 07:30:53;;;;;;;14.55;11.55;;;;;;;17.81;26.60;100052.97;5171738;27;20090;-62
2022/01/23 07:33:19;;;;;;;14.85;11.68;;;;;;;17.80;26.49;100062.81;5171524;27;20224;-62
2022/01/23 07:35:46;;;;;;;12.63;9.77;;;;;;;17.80;26.70;100061.97;5171474;27;20026;-63
2022/01/23 07:38:16;;;;;;;16.05;12.30;;;;;;;17.81;26.70;100075.19;5169137;27;20022;-62
2022/01/23 07:40:45;;;;;;;14.25;11.02;;;;;;;17.82;26.77;100076.06;5171650;27;20046;-62
2022/01/23 07:43:12;;;;;;;13.32;11.25;;;;;;;17.80;26.74;100084.22;5171470;27;20218;-64
2022/01/23 07:45:39;;;;;;;14.60;11.35;;;;;;;17.80;26.74;100084.22;5171636;27;20085;-62
2022/01/23 07:48:05;;;;;;;15.85;11.68;;;;;;;17.80;26.71;100096.78;5168936;27;20025;-62
2022/01/23 07:50:30;;;;;;;15.43;10.88;;;;;;;17.80;26.67;100099.47;5171389;27;20208;-65
2022/01/23 07:52:56;;;;;;;15.60;11.93;;;;;;;17.83;26.61;100107.19;5171322;27;20030;-63
2022/01/23 07:55:22;;;;;;;15.30;11.63;;;;;;;17.81;26.95;100104.66;5170653;27;20071;-63
2022/01/23 07:57:47;;;;;;;15.27;11.55;;;;;;;17.80;26.64;100102.97;5171277;27;20082;-63
2022/01/23 08:00:13;;;;;;;16.00;11.88;;;;;;;17.79;26.51;100103.94;5156224;27;20023;-63
2022/01/23 08:02:39;;;;;;;14.15;11.98;;;;;;;17.81;27.01;100111.84;5150301;27;20203;-63
2022/01/23 08:05:06;;;;;;;16.23;12.57;;;;;;;17.82;26.48;100110.84;5150347;27;20015;-63
2022/01/23 08:07:32;;;;;;;17.00;13.32;;;;;;;17.84;26.22;100111.53;5150244;27;20031;-63
2022/01/23 08:10:02;;;;;;;14.05;11.02;;;;;;;17.89;26.40;100119.13;5150257;27;20039;-63
2022/01/23 08:12:29;;;;;;;20.33;12.88;;;;;;;17.87;26.20;100121.91;5150088;27;20035;-63
2022/01/23 08:14:55;;;;;;;14.40;9.82;;;;;;;17.89;26.74;100125.28;5150229;27;20030;-63
2022/01/23 08:17:24;;;;;;;15.32;12.35;;;;;;;17.92;26.70;100141.06;5150017;27;20023;-63
2022/01/23 08:19:59;;;;;;;16.02;10.50;;;;;;;17.96;26.92;100145.09;5149996;27;20075;-64
2022/01/23 08:22:26;;;;;;;15.90;11.30;;;;;;;17.97;26.92;100153.97;5149778;27;20029;-63
2022/01/23 08:24:54;;;;;;;13.20;11.00;;;;;;;17.96;26.95;100153.16;5167634;27;20026;-63
2022/01/23 08:27:20;;;;;;;15.10;11.55;;;;;;;17.98;26.81;100161.03;5152459;27;20042;-63
2022/01/23 08:29:46;;;;;;;17.25;13.27;;;;;;;17.98;26.28;100171.75;5170586;27;20247;-64
2022/01/23 08:32:11;;;;;;;14.93;11.80;;;;;;;17.98;26.61;100172.59;5170225;27;20014;-64
2022/01/23 08:34:38;;;;;;;13.93;11.93;;;;;;;17.99;26.97;100176.13;5168907;27;20239;-64
2022/01/23 08:37:06;;;;;;;15.82;11.50;;;;;;;17.98;26.51;100175.28;5170459;27;20018;-64
2022/01/23 08:39:35;;;;;;;16.60;11.85;;;;;;;18.00;26.61;100183.16;5170411;27;20127;-64
2022/01/23 08:42:06;;;;;;;14.55;11.55;;;;;;;18.01;26.56;100189.38;5168663;27;20146;-64
2022/01/23 08:44:33;;;;;;;14.02;11.13;;;;;;;18.03;26.46;100187.34;5149881;27;20067;-64
2022/01/23 08:46:59;;;;;;;14.32;12.45;;;;;;;18.03;26.64;100192.72;5149027;27;20059;-64
2022/01/23 08:49:27;;;;;;;15.35;12.32;;;;;;;18.04;26.85;100200.59;5149302;27;20015;-64
2022/01/23 08:51:55;;;;;;;13.98;11.52;;;;;;;18.05;26.80;100199.63;5151431;27;20018;-63
2022/01/23 08:54:21;;;;;;;16.98;13.13;;;;;;;18.03;26.76;100206.94;5170154;27;20243;-64
2022/01/23 08:56:46;;;;;;;17.85;12.75;;;;;;;18.06;26.48;100217.38;5170016;27;20029;-64
2022/01/23 08:59:12;;;;;;;16.52;12.18;;;;;;;18.07;26.47;100218.19;5169761;27;20015;-64
2022/01/23 09:01:37;;;;;;;17.10;12.23;;;;;;;18.07;26.49;100231.56;5167059;27;20068;-63
2022/01/23 09:04:04;;;;;;;14.93;12.02;;;;;;;18.09;26.91;100226.91;5169053;27;20029;-64
2022/01/23 09:06:30;;;;;;;14.65;11.40;;;;;;;18.11;26.77;100231.13;5168755;27;20031;-64
2022/01/23 09:08:58;;;;;;;16.67;12.25;;;;;;;18.13;26.70;100244.38;5169819;27;20029;-64
2022/01/23 09:11:26;;;;;;;16.23;12.82;;;;;;;18.14;26.53;100240.69;5169569;27;20034;-64
2022/01/23 09:14:06;;;;;;;15.10;12.02;;;;;;;18.15;26.23;100240.53;5169810;27;20018;-64
2022/01/23 09:16:37;;;;;;;18.05;11.80;;;;;;;18.16;26.46;100241.38;5169370;27;20029;-64
2022/01/23 09:19:03;;;;;;;12.07;10.05;;;;;;;18.14;26.51;100235.34;5170431;27;20018;-64
2022/01/23 09:21:29;;;;;;;15.80;13.18;;;;;;;18.15;26.64;100239.72;5174715;27;20018;-64
2022/01/23 09:23:55;;;;;;;14.20;12.43;;;;;;;18.15;26.31;100237.03;5184635;27;20025;-64
2022/01/23 09:26:22;;;;;;;15.68;11.30;;;;;;;18.15;26.28;100237.03;5169589;27;20074;-64
2022/01/23 09:28:48;;;;;;;14.52;12.07;;;;;;;18.17;26.55;100236.88;5168768;27;20044;-64
2022/01/23 09:31:25;;;;;;;14.40;11.68;;;;;;;18.15;26.40;100242.38;5169279;27;20050;-64
2022/01/23 09:33:51;;;;;;;18.75;14.00;;;;;;;18.13;26.33;100239.03;5167810;27;20136;-64
2022/01/23 09:36:16;;;;;;;14.50;12.35;;;;;;;18.15;26.37;100247.75;5169404;27;20037;-64
2022/01/23 09:38:42;;;;;;;14.43;12.20;;;;;;;18.13;26.47;100242.53;5169033;27;20030;-64
2022/01/23 09:41:10;;;;;;;14.25;12.30;;;;;;;18.12;26.39;100248.03;5168928;27;20025;-64
2022/01/23 09:43:39;;;;;;;13.85;11.82;;;;;;;18.13;26.44;100239.84;5167267;27;20015;-64
2022/01/23 09:46:07;;;;;;;14.35;11.40;;;;;;;18.15;26.49;100255.78;5148642;28;20078;-64
2022/01/23 09:48:34;;;;;;;13.35;11.68;;;;;;;18.17;26.39;100255.63;5148501;27;20029;-64
2022/01/23 09:51:01;;;;;;;14.00;12.13;;;;;;;18.18;26.42;100263.47;5148702;28;20015;-64
2022/01/23 09:53:27;;;;;;;16.00;13.05;;;;;;;18.18;26.32;100266.16;5159982;27;20030;-64
2022/01/23 09:55:59;;;;;;;17.33;11.88;;;;;;;18.20;26.49;100276.75;5150840;27;20228;-64
2022/01/23 09:58:24;;;;;;;;;;;;;;;18.11;26.51;100283.84;5169381;27;20085;-64
2022/01/23 10:00:50;;;;;;;14.25;9.95;;;;;;;18.17;26.63;100282.41;5168947;27;19899;-63
2022/01/23 10:03:19;;;;;;;17.63;13.98;;;;;;;18.19;26.18;100288.44;5168707;27;20049;-63
2022/01/23 10:05:48;;;;;;;16.20;11.93;;;;;;;18.21;26.43;100292.66;5169088;27;20011;-64
2022/01/23 10:08:15;;;;;;;18.73;13.88;;;;;;;18.21;26.24;100289.13;5168927;27;20145;-63
2022/01/23 10:10:41;;;;;;;16.85;12.23;;;;;;;18.22;26.27;100293.50;5168891;27;20043;-61
2022/01/23 10:13:07;;;;;;;13.40;11.52;;;;;;;18.21;26.29;100306.03;5163325;27;20244;-63
2022/01/23 10:15:33;;;;;;;16.23;13.25;;;;;;;18.21;26.36;100299.84;5166335;27;20022;-62
2022/01/23 10:17:59;;;;;;;18.90;15.70;;;;;;;18.21;25.96;100300.69;5169615;27;20204;-62
2022/01/23 10:20:25;;;;;;;14.63;11.25;;;;;;;18.23;26.32;100298.69;5158676;27;20078;-62
2022/01/23 10:22:53;;;;;;;17.35;11.82;;;;;;;18.23;26.61;100308.59;5161473;27;20022;-63
2022/01/23 10:25:24;;;;;;;18.23;13.45;;;;;;;18.23;26.32;100301.38;5184310;27;20015;-63
2022/01/23 10:27:54;;;;;;;15.20;11.85;;;;;;;18.22;26.73;100305.06;5152171;27;20287;-63
2022/01/23 10:30:24;;;;;;;15.25;12.45;;;;;;;18.23;26.52;100311.25;5151984;27;20205;-62
2022/01/23 10:33:10;;;;;;;14.02;11.80;;;;;;;18.22;26.74;100301.53;5153516;27;20019;-62
2022/01/23 10:35:53;;;;;;;12.77;10.88;;;;;;;18.24;26.68;100304.88;5170456;27;20092;-65
2022/01/23 10:38:19;;;;;;;14.60;11.85;;;;;;;18.27;26.68;100310.81;5172824;27;20017;-63
2022/01/23 10:40:54;;;;;;;16.60;11.93;;;;;;;18.30;26.66;100307.81;5172755;27;20030;-63
2022/01/23 10:48:46;;;;;;;17.40;12.18;;;;;;;18.31;26.64;100327.41;5172623;27;20017;-63
2022/01/23 10:51:18;;;;;;;;;;;;;;;18.24;26.65;100337.03;5154635;27;20033;-63
2022/01/23 10:54:01;;;;;;;;;;;;;;;18.20;26.77;100330.31;5172692;27;19970;-63
2022/01/23 10:56:29;;;;;;;16.27;11.93;;;;;;;18.23;26.69;100333.53;5172382;27;19933;-63
2022/01/23 10:59:05;;;;;;;16.23;12.45;;;;;;;18.26;26.59;100345.75;5172360;27;20011;-64
2022/01/23 11:01:31;;;;;;;17.38;13.00;;;;;;;18.27;26.48;100339.41;5172252;27;20015;-64
2022/01/23 11:04:13;;;;;;;14.73;12.15;;;;;;;18.29;26.57;100346.31;5153536;27;20011;-64
2022/01/23 11:06:53;;;;;;;18.52;11.30;;;;;;;18.30;26.64;100345.34;5154398;27;20378;-63
2022/01/23 11:09:24;;;;;;;15.60;12.10;;;;;;;18.29;26.71;100340.97;5151410;27;20064;-64
2022/01/23 11:11:52;;;;;;;18.05;13.48;;;;;;;18.30;26.32;100347.16;5150992;27;20043;-63
2022/01/23 11:17:25;;;;;;;14.38;11.15;;;;;;;18.34;26.53;100356.59;5156534;27;20029;-63
2022/01/23 11:19:53;;;;;;;16.23;13.02;;;;;;;18.36;26.23;100361.78;5171927;27;20070;-63
2022/01/23 11:22:23;;;;;;;17.15;12.27;;;;;;;18.38;26.21;100360.63;5171970;27;20030;-64
2022/01/23 11:24:50;;;;;;;14.73;11.52;;;;;;;18.38;26.45;100370.50;5171977;27;20051;-63
2022/01/23 11:27:18;;;;;;;14.23;10.60;;;;;;;18.39;26.48;100373.03;5171774;27;20153;-62
2022/01/23 11:30:05;;;;;;;16.83;11.52;;;;;;;18.39;26.35;100381.06;5170990;27;20049;-63
2022/01/23 11:32:37;;;;;;;15.85;12.93;;;;;;;18.39;26.33;100383.75;5171549;27;20014;-62
2022/01/23 11:35:06;;;;;;;14.07;11.07;;;;;;;18.39;26.45;100393.63;5171629;27;20018;-63
2022/01/23 11:37:33;;;;;;;13.35;11.05;;;;;;;18.38;26.39;100387.41;5171712;27;20116;-63
2022/01/23 11:40:05;;;;;;;13.68;10.85;;;;;;;18.35;26.18;100395.78;5171644;27;20022;-63
2022/01/23 11:56:35;;;;;;;14.48;11.63;;;;;;;18.32;26.33;100406.78;5150573;27;20026;-63
2022/01/23 11:59:09;;;;;;;12.88;10.73;;;;;;;18.30;26.44;100409.63;5150473;27;20162;-63
2022/01/23 12:01:39;;;;;;;13.23;10.65;;;;;;;18.29;26.48;100397.22;5150502;27;20014;-63
2022/01/23 12:04:07;;;;;;;15.02;12.43;;;;;;;18.33;26.31;100404.94;5150193;27;20224;-63
2022/01/23 12:06:35;;;;;;;13.93;11.10;;;;;;;18.32;26.23;100404.09;5150885;27;20022;-63
2022/01/23 12:09:10;;;;;;;16.75;9.93;;;;;;;18.32;26.51;100416.66;5150270;27;20015;-63
2022/01/23 12:12:24;;;;;;;12.57;11.10;;;;;;;18.34;26.52;100420.03;5150082;27;20031;-63
2022/01/23 12:17:05;;;;;;;15.43;12.00;;;;;;;18.34;26.29;100433.41;5149781;27;20170;-63
2022/01/23 12:19:44;;;;;;;12.45;10.98;;;;;;;18.33;26.27;100435.25;5149839;27;20227;-64
2022/01/23 12:22:36;;;;;;;15.95;12.80;;;;;;;18.29;26.17;100440.09;5149978;27;20022;-62
2022/01/23 12:25:09;;;;;;;15.30;10.68;;;;;;;18.32;27.05;100452.34;5161189;27;20018;-62
2022/01/23 12:27:35;;;;;;;12.75;10.73;;;;;;;18.40;27.08;100456.94;5170507;27;20034;-62
2022/01/23 12:30:15;;;;;;;12.35;9.98;;;;;;;18.52;27.02;100465.63;5159053;27;20015;-62
2022/01/23 12:32:42;;;;;;;16.85;13.00;;;;;;;18.59;26.61;100464.88;5149412;27;20015;-62
2022/01/23 12:35:10;;;;;;;14.80;11.50;;;;;;;18.64;26.21;100455.53;5158656;27;20026;-62
2022/01/23 12:38:00;;;;;;;12.75;9.82;;;;;;;18.68;26.45;100462.28;5170139;27;20054;-63
2022/01/23 12:40:31;;;;;;;17.48;13.23;;;;;;;18.72;25.90;100463.66;5169781;27;20147;-63
2022/01/23 12:43:14;;;;;;;15.07;10.73;;;;;;;18.72;26.12;100461.81;5170340;27;20022;-63
2022/01/23 12:46:16;;;;;;;14.88;10.75;;;;;;;18.73;26.09;100471.56;5170385;27;20030;-63
2022/01/23 12:48:44;;;;;;;15.02;12.05;;;;;;;18.73;25.55;100470.72;5170104;27;20018;-63
2022/01/23 12:51:12;;;;;;;18.67;13.27;;;;;;;18.75;25.45;100474.06;5170324;27;20219;-63
2022/01/23 12:53:47;;;;;;;16.75;11.82;;;;;;;18.78;25.35;100475.63;5169973;27;20045;-63
2022/01/23 12:56:14;;;;;;;17.20;12.68;;;;;;;18.80;25.26;100484.38;5170222;27;20023;-63
2022/01/23 12:58:41;;;;;;;14.63;10.38;;;;;;;18.82;25.63;100488.56;5170045;27;20279;-63
2022/01/23 13:01:15;;;;;;;15.77;11.27;;;;;;;18.82;25.56;100480.53;5170062;27;20021;-63
2022/01/23 13:03:49;;;;;;;13.25;11.13;;;;;;;18.84;25.64;100488.41;5169982;27;20083;-64
2022/01/23 13:06:15;;;;;;;12.60;9.98;;;;;;;18.84;25.74;100485.72;5168027;27;20018;-63
2022/01/23 13:08:49;;;;;;;14.68;11.23;;;;;;;18.84;25.68;100491.09;5167872;27;20022;-62
2022/01/23 13:11:50;;;;;;;13.88;10.93;;;;;;;18.81;25.63;100486.06;5149909;27;20181;-62
2022/01/23 13:14:05;;;;;;;;;;;;;;;18.75;26.04;100492.84;5149089;27;20042;-64
2022/01/23 13:16:40;;;;;;;12.65;10.35;;;;;;;18.80;25.77;100497.75;5148913;27;19952;-64
2022/01/23 13:19:43;;;;;;;15.05;11.90;;;;;;;18.80;25.58;100501.28;5152845;27;20033;-63
2022/01/23 13:32:52;;;;;;;12.88;11.18;;;;;;;18.82;25.64;100511.88;5148773;27;20042;-64
2022/01/23 13:35:19;;;;;;;14.02;10.57;;;;;;;18.81;25.62;100519.06;5159555;27;20186;-64
2022/01/23 13:37:50;;;;;;;12.02;10.32;;;;;;;18.81;25.79;100532.47;5169380;27;20022;-63
2022/01/23 13:40:16;;;;;;;;;;;;;;;18.74;25.99;100536.75;5169956;27;20026;-63
2022/01/23 14:04:35;;;;;;;13.70;11.13;;;;;;;17.82;26.71;100568.59;5170926;27;20135;-63
2022/01/23 14:07:01;;;;;;;14.60;11.13;;;;;;;17.55;26.99;100570.19;5173257;27;20139;-64
2022/01/23 14:09:27;;;;;;;14.77;12.07;;;;;;;17.44;27.44;100583.69;5173078;27;20011;-64
2022/01/23 14:11:53;;;;;;;17.00;11.63;;;;;;;17.38;27.31;100577.06;5171247;27;20043;-63
2022/01/23 14:14:23;;;;;;;15.52;12.02;;;;;;;17.30;27.61;100583.09;5173262;27;20085;-63
2022/01/23 14:16:53;;;;;;;14.43;10.95;;;;;;;17.18;27.85;100586.88;5173240;27;20038;-63
2022/01/23 14:19:26;;;;;;;13.30;11.02;;;;;;;17.05;27.87;100584.50;5173150;27;20234;-64
2022/01/23 14:21:59;;;;;;;14.57;11.10;;;;;;;16.90;27.97;100589.34;5170623;27;20018;-64
2022/01/23 14:24:31;;;;;;;12.43;10.68;;;;;;;16.81;28.08;100598.19;5173184;27;20037;-63
2022/01/23 14:27:03;;;;;;;12.45;10.63;;;;;;;16.68;27.94;100593.06;5173068;27;20018;-61
2022/01/23 14:29:31;;;;;;;13.57;11.13;;;;;;;16.55;28.19;100603.97;5173124;27;20018;-64
2022/01/23 14:32:16;;;;;;;14.98;11.45;;;;;;;16.48;28.23;100609.84;5173074;27;20239;-63
2022/01/23 14:34:42;;;;;;;12.98;10.95;;;;;;;16.41;28.43;100618.53;5166141;27;20148;-63
2022/01/23 14:37:07;;;;;;;14.13;11.60;;;;;;;16.38;27.99;100627.66;5152032;27;20047;-63
2022/01/23 14:39:34;;;;;;;15.57;12.02;;;;;;;16.31;28.32;100634.50;5151895;27;20212;-63
2022/01/23 14:42:17;;;;;;;17.08;11.48;;;;;;;16.24;27.99;100636.84;5161085;27;20085;-64
2022/01/23 14:44:43;;;;;;;13.90;11.35;;;;;;;16.18;28.15;100650.69;5186841;27;20078;-64
2022/01/23 14:47:10;;;;;;;15.25;11.70;;;;;;;16.09;28.53;100654.16;5175467;27;20045;-64
2022/01/23 14:49:37;;;;;;;14.77;11.40;;;;;;;16.04;28.35;100657.22;5172466;27;20280;-64
2022/01/23 14:52:10;;;;;;;14.80;12.02;;;;;;;16.03;28.38;100660.88;5172456;27;20022;-64
2022/01/23 14:54:36;;;;;;;16.92;12.05;;;;;;;16.01;28.63;100684.16;5170701;27;20034;-64
2022/01/23 14:57:04;;;;;;;14.63;11.35;;;;;;;16.03;28.49;100687.56;5171947;27;20089;-63
2022/01/23 14:59:31;;;;;;;17.75;11.57;;;;;;;16.03;28.83;100695.56;5161723;27;20027;-63
2022/01/23 15:01:58;;;;;;;15.02;11.85;;;;;;;16.01;28.32;100690.38;5151509;27;20027;-63